Time;durP1;ratioP1;P1;durP2;ratioP2;P2;SDS_P1;SDS_P2;PMS_P1;PMS_P2;Temp;Humidity;BMP_temperature;BMP_pressure;BME280_temperature;BME280_humidity;BME280_pressure;Samples;Min_cycle;Max_cycle;Signal;HPM_P1;HPM_P2
2023/09/12 00:00:31;;;;;;;12.00;10.80;;;;;;;19.49;76.52;97575.78;4997832;28;20538;-84
2023/09/12 00:02:57;;;;;;;12.20;10.90;;;;;;;19.40;76.84;97572.72;4999952;28;20458;-85
2023/09/12 00:05:24;;;;;;;11.43;10.43;;;;;;;19.41;76.74;97575.19;4999114;28;20485;-85
2023/09/12 00:07:52;;;;;;;11.00;9.90;;;;;;;19.50;75.95;97571.91;4996498;28;20496;-85
2023/09/12 00:10:19;;;;;;;11.17;10.10;;;;;;;19.50;75.85;97574.66;5002101;28;20652;-85
2023/09/12 00:12:46;;;;;;;9.93;9.17;;;;;;;19.58;75.37;97560.44;5007641;28;20457;-86
2023/09/12 00:15:14;;;;;;;10.40;9.53;;;;;;;19.60;75.04;97558.22;4996997;28;20475;-84
2023/09/12 00:17:41;;;;;;;9.83;8.93;;;;;;;19.58;74.39;97554.94;4993398;28;21332;-85
2023/09/12 00:20:09;;;;;;;10.63;9.70;;;;;;;19.59;73.98;97549.19;4994151;28;20572;-85
2023/09/12 00:22:35;;;;;;;10.87;9.10;;;;;;;19.51;74.63;97552.44;4993295;28;20966;-85
2023/09/12 00:25:02;;;;;;;10.63;9.00;;;;;;;19.48;74.96;97554.91;4995664;28;20475;-84
2023/09/12 00:27:29;;;;;;;11.20;9.67;;;;;;;19.33;75.70;97559.25;4991707;28;20450;-85
2023/09/12 00:29:55;;;;;;;9.93;8.93;;;;;;;19.13;76.89;97554.53;5006126;28;20481;-84
2023/09/12 00:32:23;;;;;;;10.73;9.63;;;;;;;19.23;76.49;97552.88;5011461;28;20455;-85
2023/09/12 00:34:50;;;;;;;11.73;10.53;;;;;;;19.04;77.11;97552.56;5006892;28;20496;-85
2023/09/12 00:37:17;;;;;;;12.90;9.77;;;;;;;18.92;77.62;97551.97;5002890;28;20535;-85
2023/09/12 00:39:44;;;;;;;12.57;11.10;;;;;;;18.82;78.04;97552.75;4999082;28;20856;-84
2023/09/12 00:42:11;;;;;;;13.27;10.40;;;;;;;18.70;78.47;97550.22;5003978;28;20484;-85
2023/09/12 00:44:37;;;;;;;11.43;10.33;;;;;;;18.55;79.08;97552.84;5005138;28;20523;-85
2023/09/12 00:47:04;;;;;;;11.63;10.63;;;;;;;18.59;79.20;97558.59;5003146;28;20512;-84
2023/09/12 00:49:33;;;;;;;11.70;10.70;;;;;;;18.70;78.66;97555.69;4999265;28;20852;-84
2023/09/12 00:52:01;;;;;;;11.10;10.20;;;;;;;18.71;78.62;97557.34;4998064;28;21060;-84
2023/09/12 00:54:28;;;;;;;11.37;10.30;;;;;;;18.64;78.71;97551.28;5004284;28;20527;-85
2023/09/12 00:56:55;;;;;;;10.13;9.23;;;;;;;18.71;78.79;97551.03;5009573;28;20964;-84
2023/09/12 00:59:22;;;;;;;11.90;11.00;;;;;;;18.59;79.23;97551.22;4996331;28;20493;-84
2023/09/12 01:01:49;;;;;;;13.10;11.33;;;;;;;18.63;79.14;97555.09;5004012;28;20503;-84
2023/09/12 01:04:16;;;;;;;12.57;11.47;;;;;;;18.64;79.08;97555.94;5002151;28;20485;-85
2023/09/12 01:06:45;;;;;;;12.90;10.60;;;;;;;18.55;79.89;97552.84;4996400;28;20481;-85
2023/09/12 01:09:13;;;;;;;13.00;11.57;;;;;;;18.50;80.31;97561.03;5006234;28;20741;-84
2023/09/12 01:11:40;;;;;;;13.23;12.00;;;;;;;18.35;81.39;97558.19;4995502;28;20469;-85
2023/09/12 01:14:07;;;;;;;12.20;11.20;;;;;;;18.32;81.62;97555.97;4995688;28;20588;-84
2023/09/12 01:16:34;;;;;;;13.70;12.40;;;;;;;18.43;81.10;97544.84;4996692;28;20449;-84
2023/09/12 01:19:01;;;;;;;14.60;13.10;;;;;;;18.42;81.51;97547.84;5008725;28;20596;-84
2023/09/12 01:21:41;;;;;;;13.93;12.73;;;;;;;18.52;81.40;97547.09;4996937;28;20485;-84
2023/09/12 01:24:30;;;;;;;14.23;12.73;;;;;;;18.58;81.28;97551.47;5002826;28;20559;-84
2023/09/12 01:27:14;;;;;;;14.13;12.67;;;;;;;18.54;81.12;97548.44;4999273;28;20460;-84
2023/09/12 01:29:41;;;;;;;13.87;12.47;;;;;;;18.69;80.73;97542.25;5003151;28;20492;-84
2023/09/12 01:32:09;;;;;;;13.70;12.33;;;;;;;18.68;80.74;97546.91;4993068;28;20752;-85
2023/09/12 01:34:36;;;;;;;14.57;13.17;;;;;;;18.77;80.24;97539.84;5000510;28;21163;-84
2023/09/12 01:37:03;;;;;;;13.97;12.73;;;;;;;18.72;80.38;97547.22;4999475;28;20461;-84
2023/09/12 01:39:29;;;;;;;12.90;11.67;;;;;;;18.66;80.64;97549.09;4988055;28;20984;-85
2023/09/12 01:41:57;;;;;;;13.20;12.10;;;;;;;18.68;80.40;97549.66;4993558;28;20577;-84
2023/09/12 01:44:26;;;;;;;14.70;13.40;;;;;;;18.64;80.41;97548.53;4994567;28;20485;-84
2023/09/12 01:46:54;;;;;;;13.93;12.53;;;;;;;18.62;80.51;97547.16;5001832;28;20502;-85
2023/09/12 01:49:23;;;;;;;12.90;11.60;;;;;;;18.57;80.67;97542.44;5002501;28;21652;-84
2023/09/12 01:51:51;;;;;;;13.50;12.10;;;;;;;18.59;80.64;97545.72;4995314;28;20823;-84
2023/09/12 01:54:18;;;;;;;13.70;11.60;;;;;;;18.68;80.14;97546.09;5004020;28;20482;-85
2023/09/12 01:56:44;;;;;;;15.10;12.37;;;;;;;18.62;80.04;97549.88;4990501;28;20484;-85
2023/09/12 01:59:11;;;;;;;13.13;11.83;;;;;;;18.48;80.50;97546.78;4995552;28;21048;-85
2023/09/12 02:01:39;;;;;;;13.40;12.03;;;;;;;18.49;80.56;97550.34;5006313;28;20461;-84
2023/09/12 02:04:08;;;;;;;12.83;11.60;;;;;;;18.37;80.84;97550.53;4991062;28;20480;-85
2023/09/12 02:06:35;;;;;;;13.17;11.83;;;;;;;18.19;81.52;97550.97;4988065;28;20829;-85
2023/09/12 02:09:02;;;;;;;14.53;13.00;;;;;;;18.15;81.65;97547.09;4996112;28;20496;-84
2023/09/12 02:11:30;;;;;;;12.90;11.53;;;;;;;18.01;82.58;97543.97;4994080;28;20533;-85
2023/09/12 02:13:57;;;;;;;13.00;11.90;;;;;;;17.91;82.97;97547.44;4990601;28;20833;-84
2023/09/12 02:16:24;;;;;;;14.43;13.07;;;;;;;17.88;82.84;97542.50;4991927;28;20892;-85
2023/09/12 02:18:52;;;;;;;16.33;11.83;;;;;;;17.96;82.61;97538.44;4992178;28;20983;-85
2023/09/12 02:21:19;;;;;;;14.63;13.33;;;;;;;17.79;83.03;97550.38;5000377;28;21060;-84
2023/09/12 02:23:45;;;;;;;14.63;11.90;;;;;;;17.75;83.41;97542.94;4999895;28;20477;-84
2023/09/12 02:26:12;;;;;;;13.80;12.57;;;;;;;17.58;84.15;97543.00;4997280;28;20573;-84
2023/09/12 02:28:39;;;;;;;14.87;12.50;;;;;;;17.57;84.51;97535.88;5002455;28;20501;-85
2023/09/12 02:31:10;;;;;;;13.70;12.20;;;;;;;17.52;84.25;97532.31;4992093;28;20453;-84
2023/09/12 02:33:38;;;;;;;14.17;13.00;;;;;;;17.52;84.61;97543.25;4999361;28;21001;-84
2023/09/12 02:36:07;;;;;;;13.50;12.10;;;;;;;17.41;85.00;97542.31;5006866;28;20445;-85
2023/09/12 02:38:34;;;;;;;13.60;12.17;;;;;;;17.41;85.15;97537.66;5000649;28;20462;-84
2023/09/12 02:41:01;;;;;;;14.23;12.90;;;;;;;17.42;85.34;97538.50;4993543;28;20908;-83
2023/09/12 02:43:28;;;;;;;13.97;12.83;;;;;;;17.29;86.12;97539.72;4992297;28;20481;-84
2023/09/12 02:45:55;;;;;;;13.30;12.03;;;;;;;17.33;86.02;97531.81;4994907;28;20519;-84
2023/09/12 02:48:22;;;;;;;14.27;12.97;;;;;;;17.28;86.45;97532.59;4990182;28;20894;-83
2023/09/12 02:50:49;;;;;;;14.80;13.50;;;;;;;17.41;86.03;97526.72;4994600;28;23074;-84
2023/09/12 02:53:17;;;;;;;15.00;13.60;;;;;;;17.39;86.22;97522.59;4992967;28;20457;-77
2023/09/12 02:55:43;;;;;;;17.10;15.30;;;;;;;17.41;86.17;97524.00;4995613;28;20487;-76
2023/09/12 02:58:10;;;;;;;15.30;13.70;;;;;;;17.42;86.38;97520.16;5008217;28;20868;-76
2023/09/12 03:00:39;;;;;;;15.13;13.80;;;;;;;17.52;85.65;97516.72;5006691;28;20453;-76
2023/09/12 03:03:05;;;;;;;15.27;13.83;;;;;;;17.56;85.50;97525.19;4992218;28;21038;-76
2023/09/12 03:05:32;;;;;;;15.70;14.50;;;;;;;17.44;85.86;97525.38;4992809;28;20568;-76
2023/09/12 03:07:59;;;;;;;12.93;11.73;;;;;;;17.53;85.62;97528.47;4999664;28;20457;-76
2023/09/12 03:10:27;;;;;;;14.17;12.97;;;;;;;17.51;85.52;97526.00;4995217;28;20573;-76
2023/09/12 03:12:54;;;;;;;14.90;13.50;;;;;;;17.39;85.71;97528.88;4991552;28;20453;-76
2023/09/12 03:15:21;;;;;;;14.13;12.70;;;;;;;17.38;85.68;97521.75;5003636;28;20545;-77
2023/09/12 03:17:48;;;;;;;12.60;11.47;;;;;;;17.40;85.27;97529.72;4995085;28;20946;-76
2023/09/12 03:20:15;;;;;;;14.10;12.77;;;;;;;17.41;85.22;97526.72;4997039;28;20533;-77
2023/09/12 03:22:41;;;;;;;14.63;13.17;;;;;;;17.34;85.33;97531.56;5006262;28;20437;-76
2023/09/12 03:25:08;;;;;;;13.63;12.20;;;;;;;17.29;85.74;97536.16;5001809;28;20475;-77
2023/09/12 03:27:36;;;;;;;14.37;13.00;;;;;;;17.19;86.09;97523.22;5000628;28;20864;-76
2023/09/12 03:30:04;;;;;;;14.97;13.60;;;;;;;17.13;86.30;97535.19;5006803;28;20551;-76
2023/09/12 03:32:31;;;;;;;15.50;14.00;;;;;;;17.09;86.72;97525.84;4995123;28;20464;-76
2023/09/12 03:34:58;;;;;;;14.40;13.00;;;;;;;16.97;87.40;97519.66;5011446;28;20477;-76
2023/09/12 03:37:27;;;;;;;13.67;12.57;;;;;;;17.00;87.27;97519.16;4993242;28;21020;-75
2023/09/12 03:39:53;;;;;;;15.30;13.17;;;;;;;17.08;87.06;97526.91;4993696;28;20453;-70
2023/09/12 03:42:21;;;;;;;16.40;13.80;;;;;;;17.13;86.59;97524.25;4991486;28;20809;-69
2023/09/12 03:44:49;;;;;;;14.77;13.40;;;;;;;16.98;87.08;97526.78;4998349;28;20470;-72
2023/09/12 03:47:16;;;;;;;15.43;14.00;;;;;;;16.98;87.46;97524.06;5014369;28;20445;-68
2023/09/12 03:49:43;;;;;;;15.83;14.40;;;;;;;17.09;87.03;97518.47;4992971;28;20489;-71
2023/09/12 03:52:09;;;;;;;14.63;13.43;;;;;;;17.03;87.36;97518.66;5000607;28;20485;-70
2023/09/12 03:54:36;;;;;;;15.40;14.00;;;;;;;17.15;86.68;97515.78;4996697;28;20468;-70
2023/09/12 03:57:04;;;;;;;16.10;13.33;;;;;;;17.11;86.62;97515.47;5001443;28;20578;-69
2023/09/12 03:59:30;;;;;;;14.57;13.17;;;;;;;17.09;86.56;97509.44;4996994;28;20458;-73
2023/09/12 04:01:59;;;;;;;14.60;13.40;;;;;;;17.12;86.58;97512.47;4992856;28;20465;-76
2023/09/12 04:04:25;;;;;;;14.73;13.40;;;;;;;17.10;86.69;97514.63;5000963;28;20466;-76
2023/09/12 04:06:52;;;;;;;14.07;12.70;;;;;;;17.21;86.21;97512.84;5002476;28;20552;-76
2023/09/12 04:09:19;;;;;;;15.00;13.40;;;;;;;17.28;85.91;97518.91;4991538;28;20536;-77
2023/09/12 04:11:46;;;;;;;15.30;13.90;;;;;;;17.27;85.53;97522.72;5001402;28;21004;-76
2023/09/12 04:14:13;;;;;;;14.87;13.67;;;;;;;17.16;85.45;97510.06;4992729;28;21396;-76
2023/09/12 04:16:40;;;;;;;14.83;13.43;;;;;;;17.03;86.33;97508.53;5006459;28;20538;-79
2023/09/12 04:19:08;;;;;;;14.20;13.00;;;;;;;17.10;86.27;97519.28;5003258;28;20530;-77
2023/09/12 04:21:35;;;;;;;15.30;14.00;;;;;;;17.08;86.20;97526.91;5001413;28;20455;-83
2023/09/12 04:24:02;;;;;;;16.00;14.57;;;;;;;17.10;86.21;97532.97;5002998;28;20469;-83
2023/09/12 04:26:29;;;;;;;15.30;13.90;;;;;;;17.10;86.04;97530.22;4997825;28;20563;-83
2023/09/12 04:28:56;;;;;;;14.93;13.40;;;;;;;17.12;86.16;97526.16;5005228;28;20457;-82
2023/09/12 04:31:22;;;;;;;15.33;13.87;;;;;;;17.13;86.55;97526.97;4997325;28;20525;-82
2023/09/12 04:33:51;;;;;;;14.10;12.70;;;;;;;17.17;86.27;97525.38;5000404;28;20589;-82
2023/09/12 04:36:20;;;;;;;15.50;13.57;;;;;;;17.03;86.83;97511.28;5000536;28;21005;-76
2023/09/12 04:38:46;;;;;;;16.70;13.97;;;;;;;17.09;86.66;97520.38;4997306;28;20461;-82
2023/09/12 04:41:16;;;;;;;14.10;12.90;;;;;;;17.22;86.37;97528.16;4990908;28;20458;-80
2023/09/12 04:43:44;;;;;;;15.10;13.57;;;;;;;17.22;86.04;97517.22;4996496;28;20474;-80
2023/09/12 04:46:11;;;;;;;15.17;13.73;;;;;;;17.25;85.92;97515.88;4998024;28;20512;-83
2023/09/12 04:48:38;;;;;;;15.43;13.77;;;;;;;17.25;85.91;97504.94;4992981;28;20498;-81
2023/09/12 04:51:05;;;;;;;14.03;12.93;;;;;;;17.31;85.62;97506.63;4991338;28;20498;-80
2023/09/12 04:53:35;;;;;;;14.57;13.27;;;;;;;17.32;85.73;97506.38;4992615;28;20506;-81
2023/09/12 04:56:02;;;;;;;15.87;14.30;;;;;;;17.34;85.60;97515.16;5000884;28;20573;-81
2023/09/12 04:58:29;;;;;;;13.80;12.67;;;;;;;17.32;85.70;97514.59;5000996;28;20457;-81
2023/09/12 05:00:55;;;;;;;14.27;12.87;;;;;;;17.36;85.46;97521.19;4996366;28;20470;-81
2023/09/12 05:03:22;;;;;;;14.60;13.40;;;;;;;17.38;85.60;97515.47;4994149;28;20497;-81
2023/09/12 05:05:50;;;;;;;16.50;14.27;;;;;;;17.55;84.72;97520.81;4989387;28;20881;-81
2023/09/12 05:08:17;;;;;;;15.37;13.80;;;;;;;17.54;84.90;97520.03;4991868;28;21033;-79
2023/09/12 05:10:46;;;;;;;14.67;13.27;;;;;;;17.41;85.09;97518.50;4991559;28;20984;-82
2023/09/12 05:13:12;;;;;;;15.00;13.60;;;;;;;17.40;85.21;97511.38;5007604;28;20556;-79
2023/09/12 05:15:41;;;;;;;14.87;13.33;;;;;;;17.48;84.93;97517.47;4992139;28;20461;-79
2023/09/12 05:18:08;;;;;;;14.73;13.43;;;;;;;17.44;85.27;97519.91;5002115;28;20536;-80
2023/09/12 05:20:35;;;;;;;15.20;13.80;;;;;;;17.49;84.95;97521.88;5009128;28;20467;-79
2023/09/12 05:23:02;;;;;;;15.80;14.20;;;;;;;17.56;84.53;97519.72;4993598;28;20505;-79
2023/09/12 05:25:29;;;;;;;15.07;13.53;;;;;;;17.56;84.78;97525.19;4989687;28;20545;-79
2023/09/12 05:27:57;;;;;;;15.40;14.00;;;;;;;17.59;84.49;97521.94;4988879;28;20489;-79
2023/09/12 05:30:24;;;;;;;14.40;13.03;;;;;;;17.64;84.38;97525.56;4992830;28;21548;-79
2023/09/12 05:32:51;;;;;;;14.50;13.13;;;;;;;17.62;84.43;97527.72;4993578;28;20988;-79
2023/09/12 05:35:18;;;;;;;15.20;13.60;;;;;;;17.62;84.32;97527.72;4991567;28;20539;-79
2023/09/12 05:37:45;;;;;;;13.87;12.67;;;;;;;17.86;83.73;97528.25;4991993;28;20466;-79
2023/09/12 05:40:12;;;;;;;14.60;13.10;;;;;;;17.99;82.75;97529.72;5008960;28;20450;-79
2023/09/12 05:42:38;;;;;;;15.83;14.40;;;;;;;17.98;82.52;97541.75;4994186;28;20492;-79
2023/09/12 05:45:07;;;;;;;14.30;13.00;;;;;;;17.99;82.20;97537.94;4995809;28;20458;-79
2023/09/12 05:47:34;;;;;;;14.33;12.97;;;;;;;18.18;81.72;97541.09;4999861;28;20461;-79
2023/09/12 05:50:04;;;;;;;13.40;12.30;;;;;;;18.23;81.50;97541.94;4997847;28;20924;-79
2023/09/12 05:52:31;;;;;;;13.53;12.23;;;;;;;18.53;80.82;97543.22;4998766;28;20944;-80
2023/09/12 05:54:58;;;;;;;14.47;13.20;;;;;;;18.44;80.74;97538.25;5007227;28;20452;-79
2023/09/12 05:57:24;;;;;;;14.70;13.33;;;;;;;18.48;80.64;97538.56;5002225;28;20461;-79
2023/09/12 05:59:51;;;;;;;14.60;13.30;;;;;;;18.68;80.09;97543.34;4998099;28;20886;-79
2023/09/12 06:02:19;;;;;;;15.90;14.23;;;;;;;18.66;80.07;97548.28;4988312;28;20515;-80
2023/09/12 06:04:46;;;;;;;13.27;12.17;;;;;;;19.20;78.10;97548.75;4992106;28;21602;-79
2023/09/12 06:07:13;;;;;;;13.67;12.40;;;;;;;19.41;76.93;97544.19;4994464;28;20461;-80
2023/09/12 06:09:40;;;;;;;14.10;12.77;;;;;;;19.13;77.81;97548.22;4988571;28;21017;-79
2023/09/12 06:12:07;;;;;;;13.47;12.03;;;;;;;19.17;77.83;97552.03;4990134;28;20519;-79
2023/09/12 06:14:34;;;;;;;13.40;12.27;;;;;;;19.57;76.68;97554.09;4988682;28;20493;-79
2023/09/12 06:17:01;;;;;;;14.20;12.43;;;;;;;19.99;74.65;97562.13;4998706;28;20453;-80
2023/09/12 06:19:30;;;;;;;13.43;12.33;;;;;;;20.45;72.77;97570.38;4998613;28;20541;-80
2023/09/12 06:21:58;;;;;;;12.40;11.20;;;;;;;20.97;70.49;97571.91;4993920;28;20460;-79
2023/09/12 06:24:26;;;;;;;12.80;11.57;;;;;;;21.84;67.05;97573.13;4993957;28;20723;-80
2023/09/12 06:26:53;;;;;;;11.87;10.57;;;;;;;21.84;66.52;97573.13;4991831;28;20496;-80
2023/09/12 06:29:20;;;;;;;10.73;9.73;;;;;;;21.79;66.62;97573.97;5000202;28;20481;-80
2023/09/12 06:31:47;;;;;;;12.30;11.00;;;;;;;21.73;66.65;97568.81;5000981;28;21024;-80
2023/09/12 06:34:14;;;;;;;14.20;12.63;;;;;;;21.33;68.22;97570.69;4997909;28;20476;-80
2023/09/12 06:36:44;;;;;;;11.67;10.60;;;;;;;21.26;68.99;97572.91;4999756;28;20981;-79
2023/09/12 06:39:12;;;;;;;14.00;12.20;;;;;;;20.98;69.96;97570.78;4998581;28;20466;-80
2023/09/12 06:41:38;;;;;;;12.07;10.97;;;;;;;20.97;70.37;97577.41;5001735;28;20508;-80
2023/09/12 06:44:06;;;;;;;14.50;12.10;;;;;;;20.96;70.67;97573.81;4995866;28;20506;-80
2023/09/12 06:46:35;;;;;;;13.70;12.30;;;;;;;20.74;71.08;97573.34;4999666;28;20972;-80
2023/09/12 06:49:02;;;;;;;13.27;12.07;;;;;;;20.57;71.98;97579.16;5000005;28;20479;-80
2023/09/12 06:51:29;;;;;;;15.93;11.10;;;;;;;20.82;71.52;97569.19;5008222;28;20474;-80
2023/09/12 06:53:57;;;;;;;12.53;11.43;;;;;;;20.94;70.86;97577.97;4998214;28;20856;-79
2023/09/12 06:56:24;;;;;;;13.47;12.10;;;;;;;21.01;71.76;97584.00;4991630;28;20458;-80
2023/09/12 06:58:53;;;;;;;15.83;12.37;;;;;;;21.02;70.75;97585.66;4995814;28;20457;-80
2023/09/12 07:01:20;;;;;;;13.27;12.00;;;;;;;20.98;70.91;97588.13;4993071;28;20492;-80
2023/09/12 07:03:46;;;;;;;13.67;12.50;;;;;;;20.73;72.40;97599.22;4994197;28;20494;-80
2023/09/12 07:06:13;;;;;;;13.87;12.40;;;;;;;20.44;72.63;97585.25;4994781;28;20506;-80
2023/09/12 07:08:40;;;;;;;14.43;13.13;;;;;;;20.53;73.22;97589.06;5000860;28;20472;-80
2023/09/12 07:11:08;;;;;;;13.07;11.70;;;;;;;20.88;72.46;97592.81;4994820;28;20521;-79
2023/09/12 07:13:35;;;;;;;15.57;12.10;;;;;;;21.01;71.74;97595.00;4996383;28;20472;-82
2023/09/12 07:16:04;;;;;;;13.70;12.50;;;;;;;20.67;72.31;97598.38;4998384;28;20962;-81
2023/09/12 07:18:32;;;;;;;14.37;13.07;;;;;;;20.79;71.86;97600.84;5000104;28;20525;-81
2023/09/12 07:20:59;;;;;;;13.57;12.40;;;;;;;20.90;71.40;97574.13;4997535;28;20953;-81
2023/09/12 07:23:26;;;;;;;13.43;12.27;;;;;;;20.99;70.89;97608.22;5001769;28;20684;-82
2023/09/12 07:25:54;;;;;;;13.70;12.50;;;;;;;21.13;70.97;97618.34;4997115;28;20499;-82
2023/09/12 07:28:22;;;;;;;14.10;12.80;;;;;;;21.27;70.75;97613.09;4999283;28;20463;-82
2023/09/12 07:30:49;;;;;;;13.57;12.13;;;;;;;21.54;70.48;97611.88;4995612;28;20524;-81
2023/09/12 07:33:15;;;;;;;12.83;11.83;;;;;;;21.58;69.80;97615.72;4994378;28;20895;-82
2023/09/12 07:35:42;;;;;;;13.77;12.37;;;;;;;21.63;70.21;97611.00;5001204;28;20472;-81
2023/09/12 07:38:09;;;;;;;14.57;13.27;;;;;;;22.05;68.54;97601.41;5011434;28;20898;-80
2023/09/12 07:40:36;;;;;;;13.30;12.20;;;;;;;22.14;67.41;97602.41;5002279;28;20536;-82
2023/09/12 07:43:02;;;;;;;14.43;12.50;;;;;;;22.26;66.75;97602.06;4992262;28;20506;-83
2023/09/12 07:45:31;;;;;;;14.40;13.00;;;;;;;22.28;67.04;97602.59;4994262;28;20526;-82
2023/09/12 07:47:58;;;;;;;14.47;13.07;;;;;;;22.39;66.24;97595.91;4994470;28;20453;-82
2023/09/12 07:50:25;;;;;;;13.97;12.60;;;;;;;22.76;65.51;97598.81;4992662;28;20925;-82
2023/09/12 07:52:52;;;;;;;16.20;14.73;;;;;;;23.66;62.94;97598.09;4998745;28;20584;-82
2023/09/12 07:55:19;;;;;;;12.90;11.70;;;;;;;24.53;60.00;97603.13;5006838;28;20457;-82
2023/09/12 07:57:46;;;;;;;11.87;10.77;;;;;;;24.83;57.89;97612.81;4997741;28;21098;-83
2023/09/12 08:00:14;;;;;;;11.77;10.60;;;;;;;25.30;56.53;97611.69;4994507;28;20469;-83
2023/09/12 08:02:42;;;;;;;12.00;10.80;;;;;;;25.79;55.56;97612.88;4997897;28;20485;-82
2023/09/12 08:05:09;;;;;;;14.80;10.50;;;;;;;26.11;54.19;97606.31;4995234;28;20464;-82
2023/09/12 08:07:36;;;;;;;11.00;10.00;;;;;;;26.17;53.24;97615.34;4987777;28;20462;-82
2023/09/12 08:10:04;;;;;;;14.17;11.90;;;;;;;26.28;53.58;97614.81;4996037;28;20499;-81
2023/09/12 08:12:31;;;;;;;12.00;10.80;;;;;;;26.92;51.64;97612.63;4991149;28;20482;-82
2023/09/12 08:14:59;;;;;;;12.23;11.20;;;;;;;27.62;49.39;97602.63;4991905;28;20494;-82
2023/09/12 08:17:26;;;;;;;12.03;10.77;;;;;;;26.99;50.95;97614.97;4991816;28;20461;-81
2023/09/12 08:19:54;;;;;;;12.17;11.03;;;;;;;26.99;50.84;97620.53;4996567;28;20450;-81
2023/09/12 08:22:21;;;;;;;11.60;10.10;;;;;;;26.53;52.58;97616.16;4992127;28;20474;-82
2023/09/12 08:24:48;;;;;;;11.37;10.47;;;;;;;26.42;53.21;97617.53;4992938;28;21093;-81
2023/09/12 08:27:14;;;;;;;11.63;10.60;;;;;;;26.17;53.56;97623.66;4992020;28;20548;-81
2023/09/12 08:29:44;;;;;;;11.43;10.53;;;;;;;26.30;52.90;97617.25;4998322;28;20458;-81
2023/09/12 08:32:11;;;;;;;11.30;10.20;;;;;;;27.29;51.06;97621.66;4997155;28;20551;-81
2023/09/12 08:34:37;;;;;;;17.90;16.40;;;;;;;28.21;48.23;97614.22;4998455;28;20544;-80
2023/09/12 08:37:06;;;;;;;14.20;13.00;;;;;;;28.71;46.68;97615.31;4992823;28;20504;-82
2023/09/12 08:39:42;;;;;;;11.23;10.20;;;;;;;27.77;48.63;97621.66;5002015;28;20450;-82
2023/09/12 08:42:12;;;;;;;10.33;9.40;;;;;;;27.80;50.12;97611.84;4993485;28;20493;-83
2023/09/12 08:44:39;;;;;;;11.00;10.10;;;;;;;28.17;48.29;97608.47;4993223;28;20472;-82
2023/09/12 08:47:07;;;;;;;10.90;9.90;;;;;;;28.38;47.61;97608.63;4992821;28;20458;-83
2023/09/12 08:49:36;;;;;;;11.03;9.87;;;;;;;27.89;47.20;97612.69;4992324;28;21083;-82
2023/09/12 08:52:03;;;;;;;10.33;9.53;;;;;;;28.32;46.87;97610.75;4997898;28;20497;-82
2023/09/12 08:54:32;;;;;;;10.93;9.93;;;;;;;28.95;46.21;97611.19;4999193;28;20540;-83
2023/09/12 08:56:59;;;;;;;9.43;8.63;;;;;;;30.10;44.12;97618.38;5004441;28;20458;-83
2023/09/12 08:59:26;;;;;;;9.47;8.77;;;;;;;30.88;40.40;97607.31;5000568;28;20453;-81
2023/09/12 09:01:54;;;;;;;9.97;9.10;;;;;;;31.64;38.79;97603.13;5002437;28;20555;-83
2023/09/12 09:04:21;;;;;;;8.50;7.60;;;;;;;31.82;37.82;97607.38;4991733;28;20514;-82
2023/09/12 09:06:49;;;;;;;10.13;9.20;;;;;;;32.06;37.62;97606.50;5010908;28;20445;-84
2023/09/12 09:09:16;;;;;;;11.70;9.00;;;;;;;31.64;36.88;97609.53;5007148;28;20453;-82
2023/09/12 09:11:44;;;;;;;10.50;8.40;;;;;;;31.31;36.94;97608.84;4990802;28;20584;-83
2023/09/12 09:14:11;;;;;;;9.67;8.87;;;;;;;31.14;39.25;97609.06;4997279;28;20543;-83
2023/09/12 09:16:38;;;;;;;9.40;8.53;;;;;;;31.74;38.57;97599.91;4999715;28;20488;-83
2023/09/12 09:19:09;;;;;;;9.33;8.40;;;;;;;32.11;37.34;97602.63;5000167;28;20829;-83
2023/09/12 09:21:37;;;;;;;10.17;9.20;;;;;;;32.11;37.31;97597.03;5009892;28;20564;-82
2023/09/12 09:24:07;;;;;;;10.30;9.30;;;;;;;32.36;37.09;97596.63;4992166;28;20461;-82
2023/09/12 09:26:46;;;;;;;9.47;8.77;;;;;;;32.67;35.57;97598.72;4992684;28;20551;-83
2023/09/12 09:29:15;;;;;;;8.30;7.50;;;;;;;32.73;36.17;97594.50;4993017;28;20535;-80
2023/09/12 09:31:43;;;;;;;9.43;8.60;;;;;;;32.76;35.12;97597.78;4996437;28;20600;-80
2023/09/12 09:34:14;;;;;;;38.33;11.30;;;;;;;32.73;35.18;97600.09;4992950;28;20450;-79
2023/09/12 09:36:44;;;;;;;10.07;8.63;;;;;;;32.62;35.38;97587.75;4998242;28;21375;-83
2023/09/12 09:39:12;;;;;;;9.47;8.70;;;;;;;33.38;34.68;97591.47;4998035;28;20503;-84
2023/09/12 09:41:39;;;;;;;25.17;10.60;;;;;;;33.54;35.00;97585.81;4994014;28;20482;-85
2023/09/12 09:44:08;;;;;;;27.50;12.93;;;;;;;34.26;33.21;97587.13;4995376;28;20511;-84
2023/09/12 09:46:35;;;;;;;9.90;8.70;;;;;;;33.82;34.26;97583.72;4999394;28;20552;-84
2023/09/12 09:49:02;;;;;;;10.03;9.03;;;;;;;34.02;33.50;97579.78;4991085;28;20487;-84
2023/09/12 09:51:30;;;;;;;15.73;8.80;;;;;;;34.87;31.99;97579.97;5003906;28;21058;-84
2023/09/12 09:53:58;;;;;;;17.20;10.40;;;;;;;35.25;31.47;97571.41;4997002;28;20996;-83
2023/09/12 09:56:26;;;;;;;9.10;8.10;;;;;;;35.83;31.13;97567.56;4999120;28;20515;-78
2023/09/12 09:58:54;;;;;;;11.90;8.33;;;;;;;36.17;30.63;97576.91;4993738;28;20464;-82
2023/09/12 10:01:24;;;;;;;9.67;7.97;;;;;;;35.92;29.87;97577.38;5002756;28;21000;-85
2023/09/12 10:03:51;;;;;;;19.93;9.33;;;;;;;36.38;30.78;97565.97;4992709;28;20511;-83
2023/09/12 10:06:20;;;;;;;21.77;9.60;;;;;;;36.74;31.34;97578.50;4998423;28;20488;-82
2023/09/12 10:08:51;;;;;;;9.00;8.10;;;;;;;37.24;27.69;97567.75;4990684;28;20541;-81
2023/09/12 10:11:18;;;;;;;8.33;7.53;;;;;;;37.15;28.41;97570.84;4989461;28;20505;-82
2023/09/12 10:13:48;;;;;;;8.27;7.53;;;;;;;36.67;28.24;97561.47;4993358;28;21691;-82
2023/09/12 10:16:16;;;;;;;12.53;7.80;;;;;;;36.84;28.63;97558.06;4991033;28;20460;-83
2023/09/12 10:18:49;;;;;;;9.30;8.40;;;;;;;35.87;28.53;97560.00;4994821;28;21040;-82
2023/09/12 10:21:23;;;;;;;8.33;7.40;;;;;;;35.73;30.58;97559.75;4990188;28;20485;-83
2023/09/12 10:23:50;;;;;;;8.37;7.50;;;;;;;36.18;29.26;97558.81;4989188;28;20536;-82
2023/09/12 10:26:17;;;;;;;9.80;7.43;;;;;;;36.60;29.50;97555.75;4990339;28;20513;-83
2023/09/12 10:28:45;;;;;;;14.27;12.87;;;;;;;36.43;28.52;97562.78;4988348;28;20469;-83
2023/09/12 10:31:13;;;;;;;22.67;21.03;;;;;;;37.08;28.23;97562.31;5000497;28;20480;-82
2023/09/12 10:33:40;;;;;;;8.47;7.67;;;;;;;37.46;26.72;97563.91;4991603;28;20873;-82
2023/09/12 10:36:09;;;;;;;7.80;7.20;;;;;;;36.16;27.77;97558.38;4995258;28;20489;-82
2023/09/12 10:38:40;;;;;;;9.50;8.10;;;;;;;36.49;28.28;97558.44;4988402;28;20511;-82
2023/09/12 10:41:09;;;;;;;8.70;7.80;;;;;;;36.05;28.43;97552.63;4992252;28;20474;-82
2023/09/12 10:43:36;;;;;;;8.97;8.23;;;;;;;35.98;29.74;97572.22;4997461;28;20461;-82
2023/09/12 10:46:03;;;;;;;8.10;7.50;;;;;;;36.45;29.22;97563.22;4989295;28;20462;-82
2023/09/12 10:48:30;;;;;;;8.03;7.20;;;;;;;36.99;27.66;97556.19;4994166;28;20458;-81
2023/09/12 10:50:58;;;;;;;9.50;7.67;;;;;;;36.86;27.51;97535.09;4987949;28;20557;-82
2023/09/12 10:53:27;;;;;;;8.70;7.90;;;;;;;37.06;26.81;97555.44;4995475;28;20544;-84
2023/09/12 10:56:03;;;;;;;8.73;7.83;;;;;;;36.70;27.47;97554.25;4994021;28;20511;-82
2023/09/12 10:58:29;;;;;;;8.03;7.30;;;;;;;36.61;27.94;97549.72;4988114;28;20468;-82
2023/09/12 11:01:27;;;;;;;8.00;7.30;;;;;;;36.58;28.92;97558.13;4987483;28;20911;-84
2023/09/12 11:03:54;;;;;;;8.27;7.40;;;;;;;36.47;27.40;97557.19;4990337;28;20485;-82
2023/09/12 11:06:22;;;;;;;8.07;7.50;;;;;;;36.91;27.11;97551.69;4994103;28;20973;-83
2023/09/12 11:09:19;;;;;;;8.20;7.50;;;;;;;36.46;27.91;97552.75;4992654;28;20454;-81
2023/09/12 11:11:47;;;;;;;7.87;7.20;;;;;;;36.28;28.54;97549.72;4979320;28;21168;-83
2023/09/12 11:14:15;;;;;;;7.80;7.20;;;;;;;36.75;26.86;97551.91;4992621;28;20472;-82
2023/09/12 11:16:43;;;;;;;8.90;7.00;;;;;;;36.36;27.31;97551.44;5004465;28;20665;-83
2023/09/12 11:19:13;;;;;;;8.97;7.43;;;;;;;37.09;26.33;97543.38;4995098;28;20489;-84
2023/09/12 11:21:40;;;;;;;9.60;8.60;;;;;;;36.60;27.63;97538.81;4997724;28;20474;-78